createdAt,value
2019-02-04T00:00:14.485Z,15.9
2019-02-04T00:01:17.753Z,15.8
2019-02-04T00:02:19.900Z,16
2019-02-04T00:03:22.047Z,15.9
2019-02-04T00:04:23.926Z,15.8
2019-02-04T00:05:26.493Z,16
2019-02-04T00:06:28.935Z,15.9
2019-02-04T00:07:31.372Z,15.8
2019-02-04T00:08:33.793Z,15.9
2019-02-04T00:09:36.225Z,15.8
2019-02-04T00:10:38.649Z,15.7
2019-02-04T00:11:41.415Z,15.9
2019-02-04T00:12:44.715Z,15.9
2019-02-04T00:13:47.335Z,16
2019-02-04T00:14:49.765Z,15.9
2019-02-04T00:15:52.224Z,15.9
2019-02-04T00:16:54.651Z,15.9
2019-02-04T00:17:57.090Z,15.8
2019-02-04T00:18:59.258Z,15.9
2019-02-04T00:20:01.415Z,15.9
2019-02-04T00:21:03.979Z,15.9
2019-02-04T00:22:06.125Z,15.8
2019-02-04T00:23:08.639Z,15.9
2019-02-04T00:24:12.042Z,15.9
2019-02-04T00:25:14.475Z,15.8
2019-02-04T00:26:16.350Z,15.9
2019-02-04T00:27:18.785Z,15.9
2019-02-04T00:28:21.209Z,16
2019-02-04T00:29:23.331Z,15.9
2019-02-04T00:30:25.462Z,16
2019-02-04T00:31:27.599Z,16
2019-02-04T00:32:29.481Z,16
2019-02-04T00:33:31.633Z,15.8
2019-02-04T00:34:34.064Z,16
2019-02-04T00:35:37.625Z,16.1
2019-02-04T00:36:40.053Z,16.1
2019-02-04T00:37:41.946Z,16.1
2019-02-04T00:38:44.178Z,16.2
2019-02-04T00:39:46.604Z,16.2
2019-02-04T00:40:49.045Z,16.1
2019-02-04T00:41:51.475Z,16.2
2019-02-04T00:42:53.632Z,16.1
2019-02-04T00:43:56.050Z,16.2
2019-02-04T00:44:58.053Z,16.1
2019-02-04T00:46:00.405Z,16.1
2019-02-04T00:47:03.991Z,16.1
2019-02-04T00:48:06.416Z,16.1
2019-02-04T00:49:08.585Z,16.1
2019-02-04T00:50:11.021Z,16
2019-02-04T00:51:13.447Z,16
2019-02-04T00:52:15.882Z,16.1
2019-02-04T00:53:18.296Z,16.1
2019-02-04T00:54:20.430Z,16.1
2019-02-04T00:55:22.705Z,16
2019-02-04T00:56:25.346Z,16.2
2019-02-04T00:57:28.084Z,16.1
2019-02-04T00:58:30.975Z,16.2
2019-02-04T00:59:33.403Z,16.1
2019-02-04T01:00:35.851Z,16.2
2019-02-04T01:01:37.995Z,16.2
2019-02-04T01:02:40.161Z,16.2
2019-02-04T01:03:42.591Z,16.2
2019-02-04T01:04:45.026Z,16.2
2019-02-04T01:05:47.451Z,16.2
2019-02-04T01:06:49.884Z,16.3
2019-02-04T01:07:52.429Z,16.2
2019-02-04T01:08:55.114Z,16.2
2019-02-04T01:09:57.781Z,16.2
2019-02-04T01:11:00.213Z,16.2
2019-02-04T01:12:02.844Z,16.2
2019-02-04T01:13:05.276Z,16.2
2019-02-04T01:14:07.414Z,16.1
2019-02-04T01:15:09.580Z,16.2
2019-02-04T01:16:11.750Z,16.2
2019-02-04T01:17:14.175Z,16.1
2019-02-04T01:18:16.345Z,16.2
2019-02-04T01:19:18.903Z,16.2
2019-02-04T01:20:21.674Z,16.2
2019-02-04T01:21:24.805Z,16.2
2019-02-04T01:22:27.226Z,16.2
2019-02-04T01:23:29.654Z,16.2
2019-02-04T01:24:31.814Z,16.2
2019-02-04T01:25:33.963Z,16.2
2019-02-04T01:26:36.393Z,16.2
2019-02-04T01:27:38.820Z,16.2
2019-02-04T01:28:40.983Z,16.3
2019-02-04T01:29:43.236Z,16.3
2019-02-04T01:30:45.732Z,16.3
2019-02-04T01:31:47.723Z,16.3
2019-02-04T01:32:51.195Z,16.3
2019-02-04T01:33:53.354Z,16.3
2019-02-04T01:34:55.791Z,16.3
2019-02-04T01:35:57.951Z,16.4
2019-02-04T01:37:00.410Z,16.5
2019-02-04T01:38:02.555Z,16.5
2019-02-04T01:39:04.981Z,16.5
2019-02-04T01:40:07.410Z,16.5
2019-02-04T01:41:09.594Z,16.4
2019-02-04T01:42:12.207Z,16.5
2019-02-04T01:43:14.764Z,16.4
2019-02-04T01:44:18.433Z,16.4
2019-02-04T01:45:20.861Z,16.4
2019-02-04T01:46:22.841Z,16.5
2019-02-04T01:47:24.993Z,16.3
2019-02-04T01:48:26.871Z,16.5
2019-02-04T01:49:29.307Z,16.5
2019-02-04T01:50:31.735Z,16.5
2019-02-04T01:51:33.645Z,16.5
2019-02-04T01:52:36.068Z,16.5
2019-02-04T01:53:38.707Z,16.5
2019-02-04T01:54:41.358Z,16.5
2019-02-04T01:55:45.034Z,16.7
2019-02-04T01:56:47.464Z,16.5
2019-02-04T01:57:49.893Z,16.5
2019-02-04T01:58:52.323Z,16.5
2019-02-04T01:59:54.484Z,16.7
2019-02-04T02:00:56.634Z,16.6
2019-02-04T02:01:59.062Z,16.5
2019-02-04T02:03:01.241Z,16.6
2019-02-04T02:04:03.663Z,16.5
2019-02-04T02:05:06.333Z,16.5
2019-02-04T02:06:09.066Z,16.7
2019-02-04T02:07:12.544Z,16.6
2019-02-04T02:08:14.975Z,16.6
2019-02-04T02:09:16.859Z,16.5
2019-02-04T02:10:19.280Z,16.6
2019-02-04T02:11:21.423Z,16.5
2019-02-04T02:12:23.308Z,16.6
2019-02-04T02:13:25.452Z,16.5
2019-02-04T02:14:27.599Z,16.6
2019-02-04T02:15:30.023Z,16.7
2019-02-04T02:16:32.170Z,16.6
2019-02-04T02:17:34.690Z,16.5
2019-02-04T02:18:38.315Z,16.5
2019-02-04T02:19:40.477Z,16.5
2019-02-04T02:20:42.916Z,16.7
2019-02-04T02:21:44.248Z,16.7
2019-02-04T02:22:46.688Z,16.5
2019-02-04T02:23:48.860Z,16.6
2019-02-04T02:24:51.304Z,16.6
2019-02-04T02:25:53.735Z,16.7
2019-02-04T02:26:55.900Z,16.6
2019-02-04T02:27:58.319Z,16.6
2019-02-04T02:29:00.822Z,16.7
2019-02-04T02:30:04.226Z,16.7
2019-02-04T02:31:06.389Z,16.6
2019-02-04T02:32:08.813Z,16.7
2019-02-04T02:33:11.232Z,16.5
2019-02-04T02:34:13.672Z,16.8
2019-02-04T02:35:16.157Z,16.7
2019-02-04T02:36:18.023Z,16.8
2019-02-04T02:37:20.202Z,16.6
2019-02-04T02:38:22.378Z,16.7
2019-02-04T02:39:24.857Z,16.7
2019-02-04T02:40:27.954Z,16.6
2019-02-04T02:41:31.016Z,16.7
2019-02-04T02:42:33.177Z,16.7
2019-02-04T02:43:35.606Z,16.7
2019-02-04T02:44:38.035Z,16.7
2019-02-04T02:45:40.462Z,16.6
2019-02-04T02:46:42.891Z,16.6
2019-02-04T02:47:45.318Z,16.6
2019-02-04T02:48:47.205Z,16.7
2019-02-04T02:49:49.394Z,16.7
2019-02-04T02:50:51.885Z,16.7
2019-02-04T02:51:55.323Z,16.7
2019-02-04T02:52:57.382Z,16.7
2019-02-04T02:53:59.809Z,16.7
2019-02-04T02:55:02.244Z,16.7
2019-02-04T02:56:04.416Z,16.7
2019-02-04T02:57:06.839Z,16.7
2019-02-04T02:58:09.255Z,16.7
2019-02-04T02:59:11.423Z,16.6
2019-02-04T03:00:13.689Z,16.7
2019-02-04T03:01:16.112Z,16.6
2019-02-04T03:02:18.618Z,16.6
2019-02-04T03:03:22.001Z,16.6
2019-02-04T03:04:24.521Z,16.7
2019-02-04T03:05:26.963Z,16.8
2019-02-04T03:06:29.130Z,16.6
2019-02-04T03:07:31.003Z,16.7
2019-02-04T03:08:32.622Z,16.7
2019-02-04T03:09:35.044Z,16.7
2019-02-04T03:10:37.498Z,16.7
2019-02-04T03:11:39.929Z,16.7
2019-02-04T03:12:42.472Z,16.7
2019-02-04T03:13:44.925Z,16.7
2019-02-04T03:14:48.306Z,16.7
2019-02-04T03:15:50.454Z,16.7
2019-02-04T03:16:52.885Z,16.7
2019-02-04T03:17:55.032Z,16.7
2019-02-04T03:18:57.176Z,16.7
2019-02-04T03:19:59.592Z,16.8
2019-02-04T03:21:02.120Z,16.8
2019-02-04T03:22:04.546Z,16.7
2019-02-04T03:23:06.965Z,16.7
2019-02-04T03:24:09.115Z,16.6
2019-02-04T03:25:11.598Z,16.7
2019-02-04T03:26:15.012Z,16.7
2019-02-04T03:27:16.934Z,16.7
2019-02-04T03:28:19.094Z,16.8
2019-02-04T03:29:21.258Z,16.7
2019-02-04T03:30:23.684Z,16.7
2019-02-04T03:31:25.948Z,16.7
2019-02-04T03:32:28.395Z,16.7
2019-02-04T03:33:30.572Z,16.6
2019-02-04T03:34:33.298Z,16.8
2019-02-04T03:35:35.732Z,16.7
2019-02-04T03:36:38.214Z,16.7
2019-02-04T03:37:41.668Z,16.7
2019-02-04T03:38:43.541Z,16.7
2019-02-04T03:39:45.963Z,16.8
2019-02-04T03:40:48.404Z,16.7
2019-02-04T03:41:50.913Z,16.7
2019-02-04T03:42:53.053Z,16.6
2019-02-04T03:45:00.597Z,16.6
2019-02-04T03:46:03.081Z,16.6
2019-02-04T03:47:05.504Z,16.6
2019-02-04T03:48:10.178Z,16.7
2019-02-04T03:49:12.956Z,16.6
2019-02-04T03:50:16.496Z,16.6
2019-02-04T03:51:18.656Z,16.6
2019-02-04T03:52:21.099Z,16.7
2019-02-04T03:53:23.609Z,16.7
2019-02-04T03:54:26.030Z,16.7
2019-02-04T03:55:27.914Z,16.6
2019-02-04T03:56:30.356Z,16.7
2019-02-04T03:57:32.770Z,16.6
2019-02-04T03:58:34.934Z,16.6
2019-02-04T03:59:37.095Z,16.7
2019-02-04T04:00:39.613Z,16.6
2019-02-04T04:01:43.044Z,16.6
2019-02-04T04:02:45.468Z,16.7
2019-02-04T04:03:47.883Z,16.6
2019-02-04T04:04:50.324Z,16.7
2019-02-04T04:05:52.748Z,16.6
2019-02-04T04:06:54.902Z,16.6
2019-02-04T04:07:56.767Z,16.5
2019-02-04T04:08:59.196Z,16.6
2019-02-04T04:10:01.624Z,16.6
2019-02-04T04:11:03.204Z,16.5
2019-02-04T04:12:06.032Z,16.5
2019-02-04T04:13:09.527Z,16.4
2019-02-04T04:14:12.167Z,16.5
2019-02-04T04:15:14.164Z,16.5
2019-02-04T04:16:16.650Z,16.5
2019-02-04T04:17:19.076Z,16.6
2019-02-04T04:18:21.384Z,16.4
2019-02-04T04:19:23.812Z,16.3
2019-02-04T04:20:25.982Z,16.3
2019-02-04T04:21:27.874Z,16.4
2019-02-04T04:22:30.152Z,16.3
2019-02-04T04:23:32.390Z,16.3
2019-02-04T04:24:35.840Z,16.3
2019-02-04T04:25:37.724Z,16.3
2019-02-04T04:26:40.164Z,16.3
2019-02-04T04:27:42.624Z,16.3
2019-02-04T04:28:44.534Z,16.2
2019-02-04T04:29:46.702Z,16.2
2019-02-04T04:30:48.865Z,16.2
2019-02-04T04:31:51.289Z,16.2
2019-02-04T04:32:53.713Z,16.3
2019-02-04T04:33:56.256Z,16.2
2019-02-04T04:34:58.758Z,16.2
2019-02-04T04:36:02.254Z,16.2
2019-02-04T04:37:04.682Z,16.2
2019-02-04T04:38:06.830Z,16.2
2019-02-04T04:39:09.263Z,16.2
2019-02-04T04:40:11.402Z,16.2
2019-02-04T04:41:13.551Z,16.2
2019-02-04T04:42:15.708Z,16.2
2019-02-04T04:43:17.862Z,16.2
2019-02-04T04:44:20.026Z,16.2
2019-02-04T04:45:22.775Z,16.2
2019-02-04T04:46:26.254Z,16.2
2019-02-04T04:47:29.672Z,16.2
2019-02-04T04:48:31.853Z,16.1
2019-02-04T04:49:34.011Z,16.2
2019-02-04T04:50:36.434Z,16.1
2019-02-04T04:51:38.861Z,16.1
2019-02-04T04:52:41.280Z,16.2
2019-02-04T04:53:43.703Z,16.2
2019-02-04T04:54:46.134Z,16.2
2019-02-04T04:55:48.295Z,16.2
2019-02-04T04:56:50.930Z,16.1
2019-02-04T04:57:53.703Z,16.1
2019-02-04T04:58:56.646Z,16.1
2019-02-04T04:59:58.800Z,16.2
2019-02-04T05:01:01.192Z,16.1
2019-02-04T05:02:03.345Z,16.2
2019-02-04T05:03:05.213Z,16.1
2019-02-04T05:04:07.365Z,16
2019-02-04T05:05:09.848Z,16.2
2019-02-04T05:06:12.264Z,16
2019-02-04T05:07:14.794Z,16.2
2019-02-04T05:08:17.466Z,16.2
2019-02-04T05:09:20.523Z,16.1
2019-02-04T05:10:23.372Z,16.1
2019-02-04T05:11:25.826Z,16.1
2019-02-04T05:12:28.266Z,16.1
2019-02-04T05:13:30.692Z,16.2
2019-02-04T05:14:33.244Z,16.1
2019-02-04T05:15:35.664Z,16.1
2019-02-04T05:16:37.814Z,16.1
2019-02-04T05:17:40.233Z,16.1
2019-02-04T05:18:42.662Z,16.1
2019-02-04T05:19:45.417Z,16.1
2019-02-04T05:20:48.097Z,16.2
2019-02-04T05:21:54.813Z,16
2019-02-04T05:22:57.443Z,16.1
2019-02-04T05:23:59.857Z,16.2
2019-02-04T05:25:02.015Z,16
2019-02-04T05:26:04.455Z,16.1
2019-02-04T05:27:06.603Z,16.1
2019-02-04T05:28:08.454Z,16
2019-02-04T05:29:10.890Z,16.1
2019-02-04T05:30:13.335Z,16.1
2019-02-04T05:31:15.780Z,16.1
2019-02-04T05:32:18.374Z,16
2019-02-04T05:33:21.411Z,16.1
2019-02-04T05:34:24.041Z,16.2
2019-02-04T05:35:26.470Z,15.9
2019-02-04T05:36:28.624Z,16
2019-02-04T05:37:31.058Z,16.1
2019-02-04T05:38:33.187Z,15.8
2019-02-04T05:39:35.614Z,16
2019-02-04T05:40:37.772Z,16
2019-02-04T05:41:42.869Z,16.1
2019-02-04T05:42:45.723Z,16.1
2019-02-04T05:43:48.282Z,16.1
2019-02-04T05:44:51.015Z,16
2019-02-04T05:45:54.605Z,16
2019-02-04T05:46:57.034Z,16.1
2019-02-04T05:47:59.463Z,16
2019-02-04T05:49:01.886Z,16
2019-02-04T05:50:04.335Z,15.9
2019-02-04T05:51:06.782Z,16.1
2019-02-04T05:52:09.214Z,16
2019-02-04T05:53:11.640Z,16.1
2019-02-04T05:54:14.073Z,15.9
2019-02-04T05:55:16.223Z,16
2019-02-04T05:56:18.694Z,16
2019-02-04T05:57:21.995Z,16.1
2019-02-04T05:58:24.420Z,16.1
2019-02-04T05:59:26.956Z,16.1
2019-02-04T06:00:29.389Z,16
2019-02-04T06:01:31.647Z,16
2019-02-04T06:02:34.083Z,15.8
2019-02-04T06:03:36.504Z,16
2019-02-04T06:04:38.930Z,15.9
2019-02-04T06:05:41.364Z,16
2019-02-04T06:06:44.027Z,15.9
2019-02-04T06:07:46.464Z,15.9
2019-02-04T06:08:50.110Z,16.2
2019-02-04T06:09:51.996Z,16
2019-02-04T06:10:54.513Z,16
2019-02-04T06:11:56.945Z,15.9
2019-02-04T06:12:58.861Z,16
2019-02-04T06:14:01.287Z,16.1
2019-02-04T06:15:03.703Z,16
2019-02-04T06:16:06.144Z,16
2019-02-04T06:17:08.303Z,15.9
2019-02-04T06:18:10.649Z,16
2019-02-04T06:19:13.269Z,16
2019-02-04T06:20:16.558Z,16
2019-02-04T06:21:18.977Z,15.8
2019-02-04T06:22:21.395Z,16.1
2019-02-04T06:23:23.824Z,15.8
2019-02-04T06:24:25.961Z,15.9
2019-02-04T06:25:27.862Z,15.8
2019-02-04T06:26:30.015Z,16
2019-02-04T06:27:32.177Z,15.9
2019-02-04T06:28:34.330Z,15.9
2019-02-04T06:29:36.666Z,15.9
2019-02-04T06:30:38.746Z,16
2019-02-04T06:31:40.994Z,15.8
2019-02-04T06:32:43.422Z,16.1
2019-02-04T06:33:45.845Z,16
2019-02-04T06:34:47.982Z,15.9
2019-02-04T06:35:49.841Z,15.9
2019-02-04T06:36:52.262Z,15.9
2019-02-04T06:37:54.424Z,15.9
2019-02-04T06:38:56.591Z,15.9
2019-02-04T06:39:59.023Z,15.9
2019-02-04T06:41:01.538Z,15.9
2019-02-04T06:42:05.067Z,16
2019-02-04T06:43:07.494Z,15.9
2019-02-04T06:44:09.647Z,16
2019-02-04T06:45:11.784Z,15.9
2019-02-04T06:46:13.953Z,16
2019-02-04T06:47:16.235Z,15.9
2019-02-04T06:48:18.765Z,16.1
2019-02-04T06:49:20.690Z,15.9
2019-02-04T06:50:23.163Z,16.1
2019-02-04T06:51:25.038Z,15.9
2019-02-04T06:52:27.541Z,15.8
2019-02-04T06:53:30.994Z,15.9
2019-02-04T06:54:33.423Z,16
2019-02-04T06:55:35.848Z,15.9
2019-02-04T06:56:38.283Z,16
2019-02-04T06:57:40.552Z,15.8
2019-02-04T06:58:42.983Z,16
2019-02-04T06:59:45.496Z,16
2019-02-04T07:00:47.933Z,15.8
2019-02-04T07:01:50.359Z,16
2019-02-04T07:02:52.807Z,16
2019-02-04T07:03:55.519Z,15.9
2019-02-04T07:04:58.919Z,15.9
2019-02-04T07:06:01.353Z,15.9
2019-02-04T07:07:03.524Z,15.9
2019-02-04T07:08:05.441Z,15.8
2019-02-04T07:09:07.703Z,15.8
2019-02-04T07:10:09.875Z,15.8
2019-02-04T07:11:12.058Z,15.8
2019-02-04T07:12:14.220Z,16.1
2019-02-04T07:13:16.674Z,15.9
2019-02-04T07:14:19.443Z,15.9
2019-02-04T07:15:22.938Z,15.8
2019-02-04T07:16:24.527Z,15.9
2019-02-04T07:17:26.953Z,15.9
2019-02-04T07:18:29.407Z,15.8
2019-02-04T07:19:31.925Z,15.8
2019-02-04T07:20:34.085Z,15.8
2019-02-04T07:21:36.229Z,15.8
2019-02-04T07:22:38.380Z,16
2019-02-04T07:23:40.561Z,15.9
2019-02-04T07:24:43.674Z,15.9
2019-02-04T07:25:46.485Z,15.8
2019-02-04T07:26:49.984Z,16
2019-02-04T07:27:52.134Z,16
2019-02-04T07:28:54.023Z,15.9
2019-02-04T07:29:56.513Z,15.9
2019-02-04T07:30:58.940Z,15.8
2019-02-04T07:32:01.368Z,16
2019-02-04T07:33:03.520Z,15.9
2019-02-04T07:34:05.688Z,16
2019-02-04T07:35:08.132Z,15.8
2019-02-04T07:36:10.530Z,15.9
2019-02-04T07:37:13.465Z,15.8
2019-02-04T07:38:15.855Z,15.9
2019-02-04T07:39:17.717Z,15.9
2019-02-04T07:40:19.864Z,15.9
2019-02-04T07:41:22.289Z,15.9
2019-02-04T07:42:24.699Z,15.9
2019-02-04T07:43:26.867Z,15.8
2019-02-04T07:44:29.282Z,15.9
2019-02-04T07:45:31.444Z,15.8
2019-02-04T07:46:33.878Z,15.8
2019-02-04T07:47:36.645Z,15.9
2019-02-04T07:48:39.997Z,15.8
2019-02-04T07:49:41.877Z,15.9
2019-02-04T07:50:44.043Z,15.8
2019-02-04T07:51:46.183Z,15.8
2019-02-04T07:52:53.084Z,15.8
2019-02-04T07:53:55.235Z,15.8
2019-02-04T07:54:57.389Z,15.8
2019-02-04T07:55:59.817Z,15.8
2019-02-04T07:57:01.987Z,15.9
2019-02-04T07:58:03.984Z,15.8
2019-02-04T07:59:06.763Z,15.8
2019-02-04T08:00:09.983Z,15.9
2019-02-04T08:01:11.840Z,15.9
2019-02-04T08:02:13.990Z,15.9
2019-02-04T08:03:16.414Z,15.8
2019-02-04T08:04:18.576Z,15.9
2019-02-04T08:05:21.114Z,15.8
2019-02-04T08:06:23.540Z,15.9
2019-02-04T08:07:25.411Z,15.9
2019-02-04T08:08:27.406Z,15.8
2019-02-04T08:09:29.838Z,15.8
2019-02-04T08:10:32.632Z,15.8
2019-02-04T08:11:36.377Z,15.9
2019-02-04T08:12:38.924Z,15.8
2019-02-04T08:13:40.805Z,15.8
2019-02-04T08:15:47.956Z,15.9
2019-02-04T08:16:50.134Z,15.8
2019-02-04T08:17:52.566Z,15.9
2019-02-04T08:18:54.702Z,15.7
2019-02-04T08:19:57.133Z,15.8
2019-02-04T08:20:59.273Z,15.8
2019-02-04T08:22:02.085Z,15.9
2019-02-04T08:23:05.465Z,15.8
2019-02-04T08:24:07.897Z,15.7
2019-02-04T08:25:10.322Z,15.8
2019-02-04T08:26:13.377Z,15.9
2019-02-04T08:27:15.524Z,15.8
2019-02-04T08:28:17.955Z,15.8
2019-02-04T08:29:20.116Z,15.9
2019-02-04T08:30:21.987Z,15.8
2019-02-04T08:31:24.146Z,15.9
2019-02-04T08:32:26.689Z,15.8
2019-02-04T08:33:29.093Z,15.8
2019-02-04T08:34:32.736Z,15.8
2019-02-04T08:35:35.166Z,15.8
2019-02-04T08:37:42.587Z,15.8
2019-02-04T08:38:44.727Z,15.8
2019-02-04T08:39:46.905Z,15.8
2019-02-04T08:40:49.055Z,15.9
2019-02-04T08:41:50.920Z,15.8
2019-02-04T08:42:53.346Z,15.8
2019-02-04T08:43:55.903Z,15.8
2019-02-04T08:44:58.225Z,15.8
2019-02-04T08:46:01.723Z,15.9
2019-02-04T08:47:04.152Z,15.9
2019-02-04T08:48:06.335Z,15.8
2019-02-04T08:49:08.499Z,15.8
2019-02-04T08:50:10.689Z,15.8
2019-02-04T08:51:12.553Z,15.8
2019-02-04T08:52:14.995Z,15.8
2019-02-04T08:53:17.428Z,15.8
2019-02-04T08:54:19.311Z,15.8
2019-02-04T08:55:21.846Z,15.8
2019-02-04T08:56:25.339Z,15.8
2019-02-04T08:57:27.859Z,15.7
2019-02-04T08:58:29.469Z,15.8
2019-02-04T08:59:31.633Z,15.8
2019-02-04T09:00:34.087Z,15.8
2019-02-04T09:01:36.248Z,15.7
2019-02-04T09:02:38.675Z,15.8
2019-02-04T09:03:40.832Z,15.8
2019-02-04T09:04:43.257Z,15.8
2019-02-04T09:05:46.027Z,15.7
2019-02-04T09:06:49.553Z,15.9
2019-02-04T09:07:51.712Z,15.8
2019-02-04T09:08:54.167Z,15.8
2019-02-04T09:09:56.329Z,15.9
2019-02-04T09:10:58.492Z,15.8
2019-02-04T09:12:00.914Z,15.8
2019-02-04T09:13:03.504Z,15.8
2019-02-04T09:14:05.676Z,15.8
2019-02-04T09:15:08.099Z,15.8
2019-02-04T09:16:10.514Z,15.8
2019-02-04T09:17:13.260Z,15.8
2019-02-04T09:18:15.129Z,15.8
2019-02-04T09:19:17.277Z,15.9
2019-02-04T09:20:19.710Z,15.8
2019-02-04T09:21:22.145Z,15.9
2019-02-04T09:22:24.301Z,15.9
2019-02-04T09:23:26.732Z,15.9
2019-02-04T09:24:29.165Z,15.9
2019-02-04T09:25:31.589Z,15.7
2019-02-04T09:26:34.181Z,15.8
2019-02-04T09:27:36.893Z,15.8
2019-02-04T09:28:40.003Z,15.8
2019-02-04T09:29:42.282Z,15.8
2019-02-04T09:30:43.916Z,15.9
2019-02-04T09:31:46.074Z,15.8
2019-02-04T09:32:48.223Z,15.8
2019-02-04T09:33:50.654Z,15.8
2019-02-04T09:34:53.097Z,15.8
2019-02-04T09:35:55.267Z,15.9
2019-02-04T09:36:57.694Z,15.8
2019-02-04T09:38:00.643Z,15.8
2019-02-04T09:39:04.025Z,15.9
2019-02-04T09:40:06.178Z,15.8
2019-02-04T09:41:08.064Z,15.8
2019-02-04T09:42:09.713Z,15.8
2019-02-04T09:43:11.867Z,15.9
2019-02-04T09:44:14.299Z,15.9
2019-02-04T09:45:16.451Z,15.8
2019-02-04T09:46:18.885Z,15.8
2019-02-04T09:47:20.186Z,15.8
2019-02-04T09:48:22.929Z,15.8
2019-02-04T09:49:26.203Z,15.9
2019-02-04T09:50:28.405Z,15.9
2019-02-04T09:51:34.813Z,15.8
2019-02-04T09:52:37.245Z,15.9
2019-02-04T09:53:39.413Z,15.8
2019-02-04T09:54:41.853Z,15.9
2019-02-04T09:55:43.779Z,15.8
2019-02-04T09:56:45.962Z,15.9
2019-02-04T09:57:48.422Z,15.8
2019-02-04T09:58:50.871Z,16
2019-02-04T09:59:53.905Z,15.8
2019-02-04T10:00:57.375Z,15.8
2019-02-04T10:02:00.733Z,15.8
2019-02-04T10:03:03.163Z,15.7
2019-02-04T10:04:05.598Z,15.8
2019-02-04T10:05:08.030Z,15.9
2019-02-04T10:06:10.464Z,15.9
2019-02-04T10:07:12.891Z,15.8
2019-02-04T10:08:15.315Z,15.8
2019-02-04T10:09:17.741Z,15.9
2019-02-04T10:10:20.188Z,15.8
2019-02-04T10:11:22.621Z,15.8
2019-02-04T10:12:24.985Z,15.9
2019-02-04T10:13:28.083Z,15.7
2019-02-04T10:14:30.223Z,15.9
2019-02-04T10:15:32.677Z,15.9
2019-02-04T10:16:35.233Z,15.8
2019-02-04T10:17:37.438Z,15.8
2019-02-04T10:18:39.707Z,15.8
2019-02-04T10:19:42.221Z,15.8
2019-02-04T10:20:44.146Z,15.8
2019-02-04T10:21:46.856Z,15.8
2019-02-04T10:22:49.496Z,15.8
2019-02-04T10:23:52.296Z,15.8
2019-02-04T10:24:55.727Z,15.8
2019-02-04T10:25:58.145Z,15.8
2019-02-04T10:27:00.665Z,15.8
2019-02-04T10:28:03.245Z,15.8
2019-02-04T10:29:05.444Z,15.8
2019-02-04T10:30:07.929Z,15.9
2019-02-04T10:31:10.190Z,15.8
2019-02-04T10:32:12.714Z,15.8
2019-02-04T10:33:15.221Z,15.8
2019-02-04T10:34:17.473Z,15.9
2019-02-04T10:35:20.353Z,15.9
2019-02-04T10:36:23.679Z,15.9
2019-02-04T10:37:26.186Z,15.8
2019-02-04T10:38:28.764Z,15.8
2019-02-04T10:39:31.344Z,15.8
2019-02-04T10:40:33.966Z,15.8
2019-02-04T10:41:36.585Z,15.8
2019-02-04T10:42:39.121Z,15.8
2019-02-04T10:43:41.573Z,15.8
2019-02-04T10:44:44.277Z,15.9
2019-02-04T10:45:46.767Z,15.8
2019-02-04T10:46:49.508Z,15.8
2019-02-04T10:47:52.978Z,15.7
2019-02-04T10:48:56.291Z,15.9
2019-02-04T10:49:58.873Z,15.9
2019-02-04T10:51:01.263Z,15.7
2019-02-04T10:52:02.760Z,15.8
2019-02-04T10:53:04.800Z,15.8
2019-02-04T10:54:07.364Z,15.8
2019-02-04T10:55:09.618Z,15.8
2019-02-04T10:56:12.118Z,15.8
2019-02-04T10:57:18.946Z,15.8
2019-02-04T10:58:21.355Z,15.8
2019-02-04T10:59:24.076Z,15.8
2019-02-04T11:00:27.743Z,15.8
2019-02-04T11:01:29.941Z,15.7
2019-02-04T11:02:32.441Z,15.8
2019-02-04T11:03:35.007Z,15.8
2019-02-04T11:04:37.629Z,15.8
2019-02-04T11:05:39.902Z,15.8
2019-02-04T11:06:42.489Z,15.8
2019-02-04T11:07:44.744Z,15.8
2019-02-04T11:08:47.245Z,15.8
2019-02-04T11:09:49.801Z,15.8
2019-02-04T11:10:52.613Z,15.8
2019-02-04T11:11:55.898Z,15.9
2019-02-04T11:12:58.116Z,15.8
2019-02-04T11:14:00.660Z,15.8
2019-02-04T11:15:03.240Z,15.8
2019-02-04T11:16:05.426Z,15.8
2019-02-04T11:17:08.146Z,15.8
2019-02-04T11:18:10.704Z,15.8
2019-02-04T11:19:13.224Z,15.8
2019-02-04T11:20:15.443Z,15.8
2019-02-04T11:21:18.048Z,15.8
2019-02-04T11:22:21.052Z,15.8
2019-02-04T11:23:24.515Z,15.8
2019-02-04T11:24:31.511Z,15.8
2019-02-04T11:25:33.988Z,15.9
2019-02-04T11:26:36.530Z,15.8
2019-02-04T11:27:39.012Z,15.8
2019-02-04T11:28:41.459Z,15.9
2019-02-04T11:29:43.955Z,15.8
2019-02-04T11:30:46.027Z,15.8
2019-02-04T11:31:48.557Z,15.8
2019-02-04T11:32:50.985Z,15.9
2019-02-04T11:33:53.647Z,15.8
2019-02-04T11:34:56.378Z,15.7
2019-02-04T11:36:00.044Z,15.9
2019-02-04T11:37:02.560Z,15.8
2019-02-04T11:38:05.067Z,15.8
2019-02-04T11:39:07.519Z,15.8
2019-02-04T11:40:10.094Z,15.9
2019-02-04T11:41:12.384Z,15.8
2019-02-04T11:42:14.752Z,15.8
2019-02-04T11:43:17.369Z,15.8
2019-02-04T11:44:19.669Z,15.8
2019-02-04T11:45:22.532Z,15.8
2019-02-04T11:46:25.453Z,15.9
2019-02-04T11:47:28.784Z,15.8
2019-02-04T11:48:31.385Z,15.8
2019-02-04T11:49:34.006Z,15.8
2019-02-04T11:50:36.150Z,15.8
2019-02-04T11:51:38.318Z,15.8
2019-02-04T11:52:40.196Z,15.9
2019-02-04T11:53:42.622Z,15.7
2019-02-04T11:54:45.043Z,15.8
2019-02-04T11:55:47.462Z,15.8
2019-02-04T11:56:49.890Z,15.8
2019-02-04T11:57:52.564Z,15.7
2019-02-04T11:58:55.550Z,15.8
2019-02-04T11:59:57.994Z,15.8
2019-02-04T12:01:00.165Z,15.8
2019-02-04T12:02:02.313Z,15.8
2019-02-04T12:03:04.835Z,15.9
2019-02-04T12:04:06.994Z,15.8
2019-02-04T12:05:09.496Z,15.8
2019-02-04T12:06:11.645Z,15.8
2019-02-04T12:07:14.074Z,15.8
2019-02-04T12:08:16.189Z,15.8
2019-02-04T12:09:19.185Z,15.8
2019-02-04T12:10:21.962Z,15.8
2019-02-04T12:11:24.088Z,15.8
2019-02-04T12:12:26.250Z,15.8
2019-02-04T12:13:28.404Z,15.8
2019-02-04T12:14:30.823Z,15.9
2019-02-04T12:15:33.257Z,15.8
2019-02-04T12:16:35.413Z,15.8
2019-02-04T12:17:37.874Z,15.8
2019-02-04T12:18:40.300Z,15.8
2019-02-04T12:19:42.782Z,15.8
2019-02-04T12:20:46.025Z,15.8
2019-02-04T12:21:48.175Z,15.9
2019-02-04T12:22:50.602Z,15.8
2019-02-04T12:23:53.035Z,15.8
2019-02-04T12:24:55.205Z,15.8
2019-02-04T12:25:57.634Z,15.8
2019-02-04T12:26:59.803Z,15.8
2019-02-04T12:28:01.937Z,15.9
2019-02-04T12:29:04.361Z,15.9
2019-02-04T12:30:06.794Z,15.8
2019-02-04T12:31:09.502Z,15.8
2019-02-04T12:32:12.851Z,15.9
2019-02-04T12:33:15.038Z,15.9
2019-02-04T12:34:17.196Z,15.8
2019-02-04T12:35:19.624Z,15.8
2019-02-04T12:36:22.188Z,15.9
2019-02-04T12:37:24.772Z,15.8
2019-02-04T12:38:27.193Z,15.8
2019-02-04T12:39:29.354Z,15.9
2019-02-04T12:40:31.775Z,15.9
2019-02-04T12:41:34.428Z,15.7
2019-02-04T12:42:37.029Z,15.7
2019-02-04T12:43:40.745Z,15.8
2019-02-04T12:44:43.176Z,15.8
2019-02-04T12:45:45.062Z,15.8
2019-02-04T12:46:47.492Z,15.8
2019-02-04T12:47:49.376Z,15.8
2019-02-04T12:48:51.547Z,15.8
2019-02-04T12:49:53.992Z,15.8
2019-02-04T12:50:56.414Z,15.8
2019-02-04T12:51:58.574Z,15.8
2019-02-04T12:53:01.380Z,15.8
2019-02-04T12:54:04.815Z,15.8
2019-02-04T12:55:07.507Z,15.8
2019-02-04T12:56:09.930Z,15.8
2019-02-04T12:57:12.363Z,15.8
2019-02-04T12:58:14.795Z,15.8
2019-02-04T12:59:17.234Z,15.8
2019-02-04T13:00:19.662Z,15.9
2019-02-04T13:01:22.099Z,15.8
2019-02-04T13:02:23.689Z,15.8
2019-02-04T13:03:26.147Z,15.8
2019-02-04T13:04:28.895Z,15.8
2019-02-04T13:05:32.254Z,15.8
2019-02-04T13:06:34.888Z,15.8
2019-02-04T13:07:37.047Z,15.8
2019-02-04T13:08:39.484Z,15.8
2019-02-04T13:09:41.928Z,15.8
2019-02-04T13:10:43.823Z,15.8
2019-02-04T13:11:46.056Z,15.8
2019-02-04T13:12:48.485Z,15.8
2019-02-04T13:13:50.764Z,15.8
2019-02-04T13:14:53.209Z,15.8
2019-02-04T13:15:55.936Z,15.8
2019-02-04T13:16:59.360Z,15.7
2019-02-04T13:18:01.795Z,15.8
2019-02-04T13:19:03.678Z,15.8
2019-02-04T13:20:06.116Z,15.8
2019-02-04T13:21:08.597Z,15.7
2019-02-04T13:22:11.027Z,15.8
2019-02-04T13:23:13.453Z,15.8
2019-02-04T13:24:15.894Z,15.8
2019-02-04T13:25:18.317Z,15.8
2019-02-04T13:26:20.756Z,15.9
2019-02-04T13:27:23.171Z,15.9
2019-02-04T13:28:26.716Z,15.8
2019-02-04T13:29:29.147Z,15.8
2019-02-04T13:30:31.342Z,15.8
2019-02-04T13:31:33.573Z,15.8
2019-02-04T13:32:35.757Z,15.8
2019-02-04T13:33:38.183Z,15.8
2019-02-04T13:34:40.624Z,15.8
2019-02-04T13:35:43.066Z,15.9
2019-02-04T13:36:45.231Z,15.8
2019-02-04T13:37:47.664Z,15.7
2019-02-04T13:38:50.375Z,15.8
2019-02-04T13:39:53.886Z,15.8
2019-02-04T13:42:01.307Z,15.8
2019-02-04T13:43:03.200Z,15.8
2019-02-04T13:44:05.370Z,15.8
2019-02-04T13:45:07.543Z,15.8
2019-02-04T13:46:09.693Z,15.7
2019-02-04T13:47:11.611Z,15.9
2019-02-04T13:48:13.757Z,15.8
2019-02-04T13:49:15.916Z,15.8
2019-02-04T13:50:18.693Z,15.8
2019-02-04T13:51:21.935Z,15.8
2019-02-04T13:52:24.076Z,15.8
2019-02-04T13:53:27.635Z,15.8
2019-02-04T13:54:29.816Z,15.8
2019-02-04T13:55:31.974Z,15.8
2019-02-04T13:56:34.124Z,15.8
2019-02-04T13:57:36.553Z,15.8
2019-02-04T13:58:38.416Z,15.7
2019-02-04T13:59:40.993Z,15.9